EDT,Max TemperatureF,Mean TemperatureF,Min TemperatureF,Max Dew PointF,MeanDew PointF,Min DewpointF,Max Humidity, Mean Humidity, Min Humidity, Max Sea Level PressureIn, Mean Sea Level PressureIn, Min Sea Level PressureIn, Max VisibilityMiles, Mean VisibilityMiles, Min VisibilityMiles, Max Wind SpeedMPH, Mean Wind SpeedMPH, Max Gust SpeedMPH,PrecipitationIn, CloudCover, Events, WindDirDegrees
2012-10-1,75,67,58,67,61,53,93,83,72,29.81,29.69,29.60,10,7,2,15,8,23,0.62,8,Rain,52
2012-10-2,76,70,63,66,63,58,93,74,54,29.97,29.76,29.64,10,9,4,23,10,30,0.02,7,Rain,250
2012-10-3,74,68,61,61,57,56,90,74,57,30.18,30.07,29.96,10,10,10,12,4,14,0.00,6,,241
2012-10-4,78,68,57,58,55,52,93,68,43,30.29,30.23,30.19,10,10,7,8,2,12,0.00,1,,255
2012-10-5,78,66,53,58,55,51,93,70,47,30.22,30.12,30.01,10,9,6,13,2,16,0.00,1,,232
2012-10-6,65,59,53,59,51,46,90,81,72,30.09,30.03,29.94,10,8,2,13,6,16,0.01,7,Rain,349
2012-10-7,56,51,45,49,45,39,93,74,55,30.17,30.09,30.01,10,10,4,10,5,14,0.17,6,Rain,6
2012-10-8,51,49,46,46,45,42,93,85,77,30.22,30.16,30.11,10,9,3,13,6,16,0.27,8,Rain,30
2012-10-9,60,52,44,48,46,45,93,78,62,30.17,30.12,30.05,10,10,9,9,2,12,0.00,7,,280
2012-10-10,62,52,42,54,47,41,100,85,69,30.22,30.11,30.05,10,6,0,10,4,14,T,6,Fog-Rain,220
2012-10-11,71,56,40,53,44,39,100,68,35,30.30,30.24,30.21,10,7,0,10,4,13,0.00,2,Fog,294
2012-10-12,68,61,54,54,50,46,83,70,56,30.28,30.24,30.19,10,10,10,8,3,9,0.00,7,,352
2012-10-13,76,63,49,56,51,48,93,70,46,30.33,30.26,30.18,10,8,2,14,4,17,0.00,1,,253
2012-10-14,75,63,50,59,54,48,96,77,57,30.18,30.08,29.90,10,10,7,28,9,33,T,4,,220
2012-10-15,70,59,48,63,55,40,93,63,33,29.96,29.91,29.87,10,7,1,21,8,26,1.05,6,Rain-Thunderstorm,251
2012-10-16,69,57,45,47,43,37,93,63,33,30.02,29.95,29.87,10,10,8,8,1,9,0.00,0,,123
2012-10-17,74,60,45,48,44,41,92,62,31,29.95,29.85,29.72,10,10,10,21,5,28,0.00,0,,188
2012-10-18,67,60,52,57,50,40,93,69,44,29.81,29.75,29.69,10,10,3,32,11,38,0.09,5,Rain,227
2012-10-19,68,57,46,41,35,31,66,46,26,29.79,29.74,29.68,10,8,4,28,12,35,0.00,4,,226
2012-10-20,63,55,47,44,41,38,77,62,47,30.01,29.89,29.80,10,10,10,12,4,14,0.00,5,,244
2012-10-21,71,56,41,47,44,39,96,68,40,30.17,30.12,30.03,10,8,1,7,1,8,0.00,0,,47
2012-10-22,77,61,45,51,48,43,93,65,36,30.24,30.17,30.12,10,10,10,6,1,7,0.00,1,,52
2012-10-23,77,64,50,54,51,48,93,67,40,30.19,30.12,30.08,10,10,8,9,1,14,0.00,0,,307
2012-10-24,78,64,49,54,50,46,96,65,33,30.20,30.13,30.07,10,10,7,7,1,10,0.00,0,,15
2012-10-25,79,63,47,55,51,45,93,66,39,30.13,30.07,30.02,10,9,5,7,1,10,0.00,1,,331
2012-10-26,80,67,53,57,54,51,93,69,45,30.08,30.00,29.92,10,10,8,8,2,12,0.00,3,,20
2012-10-27,63,56,49,56,48,45,93,82,71,29.98,29.94,29.90,10,9,2,16,8,20,0.02,8,Rain,354
2012-10-28,50,48,45,45,43,38,89,82,74,29.97,29.91,29.86,10,8,2,16,9,22,0.52,8,Rain,357
2012-10-29,45,44,43,38,34,23,76,59,41,29.96,29.91,29.76,10,10,10,17,8,25,0.01,8,Rain,326
2012-10-30,46,44,41,33,30,24,65,55,45,29.82,29.71,29.65,10,10,10,23,12,33,T,8,Rain,273
2012-10-31,57,50,42,33,27,20,70,48,26,29.89,29.82,29.78,10,10,10,21,11,25,0.00,3,,239